Time;durP1;ratioP1;P1;durP2;ratioP2;P2;SDS_P1;SDS_P2;PMS_P1;PMS_P2;Temp;Humidity;BMP_temperature;BMP_pressure;BME280_temperature;BME280_humidity;BME280_pressure;Samples;Min_cycle;Max_cycle;Signal;HPM_P1;HPM_P2
2021/07/04 00:00:43;;;;;;;6.78;6.10;;;17.70;99.90;;;;;;5041620;28;20075;-69
2021/07/04 00:03:09;;;;;;;5.70;5.13;;;17.80;99.90;;;;;;5042523;28;20079;-69
2021/07/04 00:05:47;;;;;;;6.13;5.53;;;17.80;99.90;;;;;;5046424;28;20017;-69
2021/07/04 00:08:15;;;;;;;8.93;6.15;;;17.90;99.90;;;;;;5044796;28;20051;-69
2021/07/04 00:10:44;;;;;;;7.63;6.83;;;17.80;99.90;;;;;;5041268;28;20033;-69
2021/07/04 00:13:10;;;;;;;9.45;7.28;;;17.80;99.90;;;;;;5044544;28;20386;-69
2021/07/04 00:15:40;;;;;;;7.40;6.47;;;17.80;99.90;;;;;;5039294;28;20030;-69
2021/07/04 00:18:11;;;;;;;8.82;7.10;;;17.80;99.90;;;;;;5043834;28;20476;-69
2021/07/04 00:20:38;;;;;;;6.85;5.95;;;17.80;99.90;;;;;;5046080;28;20432;-69
2021/07/04 00:23:03;;;;;;;8.82;7.03;;;17.80;99.90;;;;;;5046042;28;20041;-69
2021/07/04 00:25:29;;;;;;;6.82;6.05;;;17.80;99.90;;;;;;5043333;28;20032;-69
2021/07/04 00:27:56;;;;;;;6.53;5.85;;;17.80;99.90;;;;;;5042440;28;20029;-69
2021/07/04 00:30:23;;;;;;;6.10;5.50;;;17.80;99.90;;;;;;5041406;28;20021;-69
2021/07/04 00:32:49;;;;;;;5.50;5.00;;;17.80;99.90;;;;;;5044778;28;20029;-69
2021/07/04 00:35:17;;;;;;;6.40;5.50;;;17.90;99.90;;;;;;5044728;28;20025;-69
2021/07/04 00:37:43;;;;;;;7.60;6.85;;;17.80;99.90;;;;;;5045314;28;20033;-69
2021/07/04 00:40:09;;;;;;;6.88;6.03;;;17.80;99.90;;;;;;5043033;28;20070;-69
2021/07/04 00:42:36;;;;;;;7.55;6.75;;;17.80;99.90;;;;;;5043925;28;20022;-69
2021/07/04 00:45:07;;;;;;;6.82;6.20;;;17.80;99.90;;;;;;5042900;28;20026;-69
2021/07/04 00:47:33;;;;;;;6.20;5.60;;;17.80;99.90;;;;;;5044627;28;20139;-69
2021/07/04 00:49:58;;;;;;;7.05;5.97;;;17.70;99.90;;;;;;5039608;28;20108;-69
2021/07/04 00:52:24;;;;;;;4.65;4.25;;;17.70;99.90;;;;;;5042676;28;20025;-69
2021/07/04 00:54:50;;;;;;;5.78;4.90;;;17.70;99.90;;;;;;5035908;28;20029;-69
2021/07/04 00:57:16;;;;;;;4.30;3.85;;;17.80;99.90;;;;;;5043730;28;20531;-69
2021/07/04 00:59:42;;;;;;;3.95;3.55;;;17.80;99.90;;;;;;5046962;28;20071;-69
2021/07/04 01:02:07;;;;;;;4.15;3.35;;;17.80;99.90;;;;;;5062738;28;20035;-69
2021/07/04 01:04:33;;;;;;;3.72;3.10;;;17.90;99.90;;;;;;5045190;28;20026;-69
2021/07/04 01:06:58;;;;;;;4.32;3.53;;;18.00;99.90;;;;;;5038173;28;20055;-69
2021/07/04 01:09:24;;;;;;;4.10;3.40;;;18.00;99.90;;;;;;5038867;28;20075;-69
2021/07/04 01:11:50;;;;;;;3.13;2.83;;;18.10;99.90;;;;;;5039864;28;20040;-69
2021/07/04 01:14:16;;;;;;;4.18;3.15;;;18.10;99.90;;;;;;5041696;28;20431;-69
2021/07/04 01:16:43;;;;;;;3.28;2.97;;;18.10;99.90;;;;;;5045164;28;20032;-69
2021/07/04 01:19:13;;;;;;;3.47;2.72;;;18.10;99.90;;;;;;5043040;28;20021;-70
2021/07/04 01:21:42;;;;;;;3.30;2.65;;;18.20;99.90;;;;;;5043086;28;20033;-69
2021/07/04 01:24:08;;;;;;;3.00;2.70;;;18.20;99.90;;;;;;5044647;28;20028;-69
2021/07/04 01:26:33;;;;;;;3.47;2.78;;;18.20;99.90;;;;;;5036527;28;20100;-70
2021/07/04 01:28:59;;;;;;;3.85;2.10;;;18.20;99.90;;;;;;5043676;28;20063;-70
2021/07/04 01:31:24;;;;;;;2.80;2.50;;;18.10;99.90;;;;;;5042373;28;20072;-70
2021/07/04 01:33:50;;;;;;;3.03;2.60;;;18.10;99.90;;;;;;5043181;28;20156;-70
2021/07/04 01:36:16;;;;;;;2.78;2.47;;;18.10;99.90;;;;;;5043475;28;20053;-70
2021/07/04 01:38:42;;;;;;;2.35;2.10;;;18.10;99.90;;;;;;5043577;28;20511;-70
2021/07/04 01:41:08;;;;;;;2.65;2.42;;;18.10;99.90;;;;;;5041831;28;20053;-71
2021/07/04 01:43:33;;;;;;;3.25;2.63;;;18.10;99.90;;;;;;5045636;28;20021;-70
2021/07/04 01:45:59;;;;;;;4.07;2.55;;;18.10;99.90;;;;;;5040945;28;20489;-70
2021/07/04 01:48:24;;;;;;;2.83;2.53;;;18.10;99.90;;;;;;5042073;28;20358;-70
2021/07/04 01:50:50;;;;;;;3.03;2.72;;;18.10;99.90;;;;;;5040864;28;20051;-70
2021/07/04 01:53:18;;;;;;;2.90;2.58;;;18.10;99.90;;;;;;5028378;28;20021;-69
2021/07/04 01:55:43;;;;;;;3.38;2.75;;;18.10;99.90;;;;;;5040072;28;20105;-70
2021/07/04 01:58:09;;;;;;;2.78;2.47;;;18.00;99.90;;;;;;5043715;28;20219;-69
2021/07/04 02:00:36;;;;;;;2.97;2.67;;;18.00;99.90;;;;;;5041600;28;20037;-69
2021/07/04 02:03:04;;;;;;;3.40;3.03;;;18.00;99.90;;;;;;5040888;28;20029;-70
2021/07/04 02:05:30;;;;;;;2.90;2.60;;;18.00;99.90;;;;;;5041264;28;20022;-70
2021/07/04 02:07:57;;;;;;;4.07;3.25;;;18.00;99.90;;;;;;5043218;28;20366;-70
2021/07/04 02:10:25;;;;;;;3.47;3.15;;;18.00;99.90;;;;;;5043338;28;20139;-70
2021/07/04 02:12:52;;;;;;;3.33;3.03;;;18.00;99.90;;;;;;5043302;28;20033;-70
2021/07/04 02:15:20;;;;;;;4.95;2.95;;;17.90;99.90;;;;;;5042559;28;20025;-70
2021/07/04 02:17:46;;;;;;;3.42;3.13;;;17.90;99.90;;;;;;5038860;28;20028;-70
2021/07/04 02:20:31;;;;;;;3.58;2.92;;;17.90;99.90;;;;;;5045608;28;20021;-70
2021/07/04 02:22:57;;;;;;;3.35;3.05;;;18.00;99.90;;;;;;5043232;28;20120;-70
2021/07/04 02:25:23;;;;;;;3.42;2.85;;;17.90;99.90;;;;;;5042099;28;20017;-70
2021/07/04 02:27:49;;;;;;;2.80;2.60;;;17.90;99.90;;;;;;5042754;28;20358;-70
2021/07/04 02:30:14;;;;;;;3.75;2.45;;;17.90;99.90;;;;;;5039175;28;20443;-70
2021/07/04 02:32:40;;;;;;;2.53;2.25;;;17.90;99.90;;;;;;5036924;28;20025;-70
2021/07/04 02:35:06;;;;;;;3.13;2.40;;;17.90;99.90;;;;;;5040695;28;20128;-69
2021/07/04 02:37:32;;;;;;;2.35;1.95;;;17.90;99.90;;;;;;5036853;28;20029;-69
2021/07/04 02:39:57;;;;;;;1.92;1.65;;;17.90;99.90;;;;;;5040844;28;20021;-70
2021/07/04 02:42:23;;;;;;;1.98;1.63;;;17.90;99.90;;;;;;5035050;28;20366;-70
2021/07/04 02:44:48;;;;;;;2.58;1.88;;;17.90;99.90;;;;;;5037369;28;20022;-69
2021/07/04 02:47:14;;;;;;;2.40;2.17;;;17.90;99.90;;;;;;5037125;28;20017;-70
2021/07/04 02:49:39;;;;;;;2.00;1.77;;;17.90;99.90;;;;;;5039356;28;20033;-69
2021/07/04 02:52:05;;;;;;;2.30;2.08;;;17.90;99.90;;;;;;5041491;28;20384;-70
2021/07/04 02:54:31;;;;;;;2.50;2.22;;;18.00;99.90;;;;;;5045987;28;20377;-70
2021/07/04 02:56:56;;;;;;;2.55;2.25;;;17.90;99.90;;;;;;5046402;28;20033;-70
2021/07/04 02:59:22;;;;;;;2.72;2.20;;;18.00;99.90;;;;;;5045087;28;20160;-70
2021/07/04 03:01:47;;;;;;;2.78;2.47;;;17.90;99.90;;;;;;5042357;28;20032;-70
2021/07/04 03:04:13;;;;;;;3.15;2.85;;;17.90;99.90;;;;;;5046505;28;20018;-69
2021/07/04 03:06:38;;;;;;;3.40;2.25;;;17.90;99.90;;;;;;5044071;28;20032;-69
2021/07/04 03:09:04;;;;;;;3.08;2.75;;;17.90;99.90;;;;;;5046204;28;20025;-69
2021/07/04 03:11:30;;;;;;;3.47;3.17;;;17.90;99.90;;;;;;5049054;28;20030;-69
2021/07/04 03:13:55;;;;;;;3.83;3.42;;;17.80;99.90;;;;;;5045369;28;20029;-69
2021/07/04 03:16:21;;;;;;;3.70;3.33;;;17.80;99.90;;;;;;5040617;28;20107;-69
2021/07/04 03:18:46;;;;;;;4.60;4.20;;;17.80;99.90;;;;;;5044648;28;20468;-70
2021/07/04 03:21:12;;;;;;;4.38;3.97;;;17.70;99.90;;;;;;5045803;28;20035;-69
2021/07/04 03:23:37;;;;;;;4.30;3.90;;;17.60;99.90;;;;;;5042822;28;20029;-71
2021/07/04 03:26:03;;;;;;;5.25;4.75;;;17.50;99.90;;;;;;5044748;28;20017;-69
2021/07/04 03:28:28;;;;;;;5.60;5.07;;;17.50;99.90;;;;;;5041185;28;20487;-69
2021/07/04 03:30:54;;;;;;;6.30;5.70;;;17.50;99.90;;;;;;5041489;28;20563;-69
2021/07/04 03:33:19;;;;;;;5.68;5.15;;;17.50;99.90;;;;;;5047790;28;20021;-69
2021/07/04 03:35:45;;;;;;;4.93;4.25;;;17.50;99.90;;;;;;5041628;28;20056;-70
2021/07/04 03:38:11;;;;;;;4.68;4.28;;;17.60;99.90;;;;;;5045497;28;20056;-70
2021/07/04 03:40:37;;;;;;;6.65;4.70;;;17.60;99.90;;;;;;5045118;28;20024;-70
2021/07/04 03:43:02;;;;;;;5.95;5.35;;;17.60;99.90;;;;;;5041584;28;20076;-70
2021/07/04 03:45:28;;;;;;;7.25;6.18;;;17.50;99.90;;;;;;5045766;28;20017;-69
2021/07/04 03:47:53;;;;;;;6.75;6.10;;;17.50;99.90;;;;;;5042609;28;20385;-69
2021/07/04 03:50:19;;;;;;;8.13;6.57;;;17.50;99.90;;;;;;5046031;28;20362;-70
2021/07/04 03:52:45;;;;;;;6.28;5.60;;;17.50;99.90;;;;;;5045815;28;20040;-70
2021/07/04 03:55:12;;;;;;;7.20;5.25;;;17.50;99.90;;;;;;5045867;28;20037;-70
2021/07/04 03:57:37;;;;;;;6.32;5.72;;;17.50;99.90;;;;;;5042302;28;20017;-70
2021/07/04 04:00:06;;;;;;;7.00;6.22;;;17.50;99.90;;;;;;5045339;28;20152;-70
2021/07/04 04:02:32;;;;;;;6.63;6.03;;;17.50;99.90;;;;;;5037279;28;20234;-71
2021/07/04 04:04:58;;;;;;;5.85;5.25;;;17.50;99.90;;;;;;5042017;28;20025;-70
2021/07/04 04:07:25;;;;;;;7.88;5.70;;;17.50;99.90;;;;;;5046464;28;20032;-70
2021/07/04 04:09:52;;;;;;;6.07;5.47;;;17.50;99.90;;;;;;5045826;28;20060;-70
2021/07/04 04:12:18;;;;;;;5.60;5.10;;;17.60;99.90;;;;;;5044574;28;20108;-70
2021/07/04 04:14:44;;;;;;;5.00;4.50;;;17.60;99.90;;;;;;5043305;28;20037;-70
2021/07/04 04:17:09;;;;;;;5.05;4.55;;;17.70;99.90;;;;;;5042240;28;20090;-71
2021/07/04 04:19:35;;;;;;;5.55;4.93;;;17.70;99.90;;;;;;5047052;28;20017;-70
2021/07/04 04:22:01;;;;;;;6.40;5.60;;;17.70;99.90;;;;;;5045471;28;20453;-70
2021/07/04 04:24:27;;;;;;;6.10;5.22;;;17.80;99.90;;;;;;5043931;28;20014;-70
2021/07/04 04:26:53;;;;;;;5.97;5.38;;;17.80;99.90;;;;;;5043497;28;20064;-70
2021/07/04 04:29:19;;;;;;;6.70;5.97;;;17.80;99.90;;;;;;5041804;28;20028;-70
2021/07/04 04:31:46;;;;;;;6.13;5.53;;;17.80;99.90;;;;;;5045024;28;20535;-70
2021/07/04 04:34:14;;;;;;;5.45;4.90;;;17.90;99.90;;;;;;5042303;28;20036;-70
2021/07/04 04:36:39;;;;;;;6.75;6.05;;;17.90;99.90;;;;;;5042367;28;20028;-71
2021/07/04 04:39:06;;;;;;;5.40;4.90;;;17.90;99.90;;;;;;5045138;28;20025;-70
2021/07/04 04:41:33;;;;;;;5.38;4.78;;;18.00;99.90;;;;;;5044625;28;20029;-70
2021/07/04 04:44:00;;;;;;;6.07;5.20;;;18.00;99.90;;;;;;5043829;28;20488;-70
2021/07/04 04:46:26;;;;;;;5.45;4.68;;;18.10;99.90;;;;;;5044255;28;20068;-70
2021/07/04 04:48:51;;;;;;;5.78;4.85;;;18.10;99.90;;;;;;5039833;28;20053;-70
2021/07/04 04:51:17;;;;;;;6.80;5.63;;;18.10;99.90;;;;;;5044563;28;20026;-70
2021/07/04 04:53:42;;;;;;;7.43;6.10;;;18.10;99.90;;;;;;5045873;28;20029;-70
2021/07/04 04:56:08;;;;;;;7.28;6.30;;;18.00;99.90;;;;;;5045865;28;20079;-70
2021/07/04 04:58:34;;;;;;;6.03;5.30;;;18.00;99.90;;;;;;5041958;28;20027;-70
2021/07/04 05:00:59;;;;;;;8.02;5.60;;;18.00;99.90;;;;;;5044630;28;20021;-70
2021/07/04 05:03:25;;;;;;;5.88;5.28;;;18.10;99.90;;;;;;5041107;28;20481;-70
2021/07/04 05:05:50;;;;;;;5.40;4.90;;;18.10;99.90;;;;;;5046838;28;20036;-71
2021/07/04 05:08:16;;;;;;;6.43;5.32;;;18.20;99.90;;;;;;5043486;28;20033;-70
2021/07/04 05:10:42;;;;;;;6.00;5.40;;;18.20;99.90;;;;;;5041990;28;20025;-70
2021/07/04 05:13:07;;;;;;;6.93;5.85;;;18.30;99.90;;;;;;5046431;28;20063;-70
2021/07/04 05:15:33;;;;;;;7.20;6.22;;;18.40;99.90;;;;;;5041601;28;20056;-70
2021/07/04 05:18:02;;;;;;;7.70;5.72;;;18.40;99.90;;;;;;5041525;28;20025;-70
2021/07/04 05:20:28;;;;;;;9.93;7.57;;;18.50;99.90;;;;;;5036102;28;20393;-70
2021/07/04 05:22:53;;;;;;;10.65;8.73;;;18.50;99.90;;;;;;5045888;28;20520;-70
2021/07/04 05:25:19;;;;;;;12.90;10.30;;;18.40;99.90;;;;;;5045595;28;20020;-71
2021/07/04 05:27:44;;;;;;;14.68;11.85;;;18.40;99.90;;;;;;5040884;28;20065;-70
2021/07/04 05:30:10;;;;;;;17.92;14.07;;;18.40;99.90;;;;;;5043990;28;20447;-71
2021/07/04 05:32:36;;;;;;;16.05;12.07;;;18.30;99.90;;;;;;5052347;28;20028;-70
2021/07/04 05:35:02;;;;;;;15.18;11.07;;;18.30;99.90;;;;;;5052380;28;20104;-71
2021/07/04 05:37:28;;;;;;;16.60;12.23;;;18.30;99.90;;;;;;5039106;28;20036;-70
2021/07/04 05:39:54;;;;;;;17.50;12.93;;;18.30;99.90;;;;;;5046345;28;20361;-70
2021/07/04 05:42:20;;;;;;;15.27;11.80;;;18.40;99.90;;;;;;5034096;28;20012;-70
2021/07/04 05:44:45;;;;;;;14.93;10.98;;;18.40;99.90;;;;;;5032984;28;20100;-70
2021/07/04 05:47:11;;;;;;;18.35;11.95;;;18.50;99.90;;;;;;5031561;28;20531;-70
2021/07/04 05:49:36;;;;;;;15.32;10.98;;;18.50;99.90;;;;;;5031558;28;20033;-70
2021/07/04 05:52:04;;;;;;;13.10;10.57;;;18.60;99.90;;;;;;5032823;28;20036;-70
2021/07/04 05:54:30;;;;;;;14.63;10.73;;;18.60;99.90;;;;;;5032661;28;20048;-70
2021/07/04 05:56:55;;;;;;;16.58;13.13;;;18.60;99.90;;;;;;5032756;28;20033;-70
2021/07/04 05:59:21;;;;;;;17.85;13.20;;;18.70;99.90;;;;;;5032562;28;20030;-70
2021/07/04 06:01:47;;;;;;;16.42;12.25;;;18.80;99.90;;;;;;5043148;28;20052;-70
2021/07/04 06:04:12;;;;;;;20.73;15.55;;;18.80;99.90;;;;;;5036254;28;20483;-70
2021/07/04 06:06:38;;;;;;;17.27;13.07;;;18.90;99.90;;;;;;5032773;28;20131;-71
2021/07/04 06:09:04;;;;;;;17.40;14.02;;;18.90;99.90;;;;;;5053078;28;20496;-71
2021/07/04 06:11:29;;;;;;;18.27;14.65;;;19.00;99.90;;;;;;5062642;28;20159;-71
2021/07/04 06:13:55;;;;;;;18.30;13.60;;;19.10;99.90;;;;;;5060259;28;20134;-70
2021/07/04 06:16:21;;;;;;;16.02;13.50;;;19.20;99.90;;;;;;5059003;28;20367;-70
2021/07/04 06:18:46;;;;;;;20.15;15.02;;;19.20;99.90;;;;;;5061855;28;20024;-71
2021/07/04 06:21:12;;;;;;;20.38;15.60;;;19.30;99.90;;;;;;5043768;28;20082;-70
2021/07/04 06:23:38;;;;;;;15.60;13.77;;;19.40;99.90;;;;;;5051084;28;20025;-71
2021/07/04 06:26:03;;;;;;;19.88;15.65;;;19.40;99.90;;;;;;5031640;28;20022;-71
2021/07/04 06:28:29;;;;;;;23.15;18.52;;;19.50;99.90;;;;;;5034519;28;20104;-71
2021/07/04 06:30:55;;;;;;;18.88;15.52;;;19.50;99.90;;;;;;5035588;28;20021;-71
2021/07/04 06:33:20;;;;;;;21.75;17.15;;;19.60;99.90;;;;;;5035592;28;20503;-71
2021/07/04 06:35:46;;;;;;;21.65;17.15;;;19.70;99.90;;;;;;5046365;28;20033;-71
2021/07/04 06:38:11;;;;;;;18.83;16.33;;;19.80;99.90;;;;;;5047059;28;20057;-71
2021/07/04 06:40:37;;;;;;;21.35;16.48;;;19.90;99.90;;;;;;5038498;28;20330;-71
2021/07/04 06:43:03;;;;;;;23.33;20.05;;;20.00;99.90;;;;;;5035916;28;20025;-71
2021/07/04 06:45:29;;;;;;;20.98;18.73;;;20.10;99.90;;;;;;5033266;28;20029;-71
2021/07/04 06:47:54;;;;;;;20.88;18.35;;;20.10;99.90;;;;;;5034840;28;20021;-71
2021/07/04 06:50:20;;;;;;;18.85;16.52;;;20.10;99.90;;;;;;5035249;28;20052;-72
2021/07/04 06:52:47;;;;;;;17.75;15.10;;;20.20;99.90;;;;;;5035433;28;20026;-71
2021/07/04 06:55:14;;;;;;;18.05;14.85;;;20.30;99.90;;;;;;5035383;28;20025;-71
2021/07/04 06:57:39;;;;;;;18.55;15.68;;;20.30;99.90;;;;;;5035539;28;20052;-71
2021/07/04 07:00:10;;;;;;;18.33;15.82;;;20.20;99.90;;;;;;5035668;28;20105;-71
2021/07/04 07:02:36;;;;;;;18.23;15.30;;;20.20;99.90;;;;;;5035543;28;20021;-71
2021/07/04 07:05:07;;;;;;;22.15;17.65;;;20.30;99.90;;;;;;5035425;28;20021;-71
2021/07/04 07:07:32;;;;;;;22.50;17.40;;;20.40;99.90;;;;;;5036726;28;20524;-71
2021/07/04 07:09:58;;;;;;;21.35;18.08;;;20.40;99.90;;;;;;5035295;28;20125;-71
2021/07/04 07:12:24;;;;;;;17.92;15.85;;;20.40;99.90;;;;;;5035375;28;20063;-72
2021/07/04 07:14:49;;;;;;;18.35;15.48;;;20.40;99.90;;;;;;5035257;28;20088;-71
2021/07/04 07:17:15;;;;;;;17.58;14.40;;;20.40;99.90;;;;;;5041459;28;20091;-71
2021/07/04 07:19:40;;;;;;;17.52;14.45;;;20.50;99.90;;;;;;5034343;28;20026;-72
2021/07/04 07:22:06;;;;;;;15.93;14.13;;;20.50;99.90;;;;;;5035282;28;20077;-71
2021/07/04 07:24:32;;;;;;;17.98;14.27;;;20.60;99.90;;;;;;5035574;28;20503;-71
2021/07/04 07:26:57;;;;;;;17.80;15.35;;;20.60;99.90;;;;;;5033596;28;20025;-72
2021/07/04 07:29:23;;;;;;;22.15;18.38;;;20.70;99.90;;;;;;5034012;28;20033;-72
2021/07/04 07:31:49;;;;;;;17.42;15.10;;;20.70;99.90;;;;;;5039709;28;20025;-72
2021/07/04 07:34:14;;;;;;;19.35;15.73;;;20.80;99.90;;;;;;5044275;28;20033;-72
2021/07/04 07:36:40;;;;;;;17.77;15.85;;;20.90;99.90;;;;;;5034841;28;20033;-73
2021/07/04 07:39:06;;;;;;;19.27;16.05;;;21.00;99.90;;;;;;5052240;28;20039;-72
2021/07/04 07:41:33;;;;;;;17.48;15.63;;;21.10;99.90;;;;;;5052692;28;20025;-73
2021/07/04 07:43:58;;;;;;;17.80;15.35;;;21.30;99.80;;;;;;5034431;28;20041;-73
2021/07/04 07:46:24;;;;;;;17.23;14.95;;;21.40;99.60;;;;;;5033139;28;21059;-73
2021/07/04 07:48:49;;;;;;;21.90;17.50;;;21.50;99.40;;;;;;5026314;28;20256;-72
2021/07/04 07:51:15;;;;;;;22.67;18.65;;;21.70;99.00;;;;;;5033054;28;20393;-73
2021/07/04 07:53:42;;;;;;;19.95;17.33;;;21.80;98.70;;;;;;5030703;28;20104;-73
2021/07/04 07:56:07;;;;;;;21.23;17.42;;;21.90;98.60;;;;;;5048076;28;20087;-73
2021/07/04 07:58:33;;;;;;;19.20;15.95;;;22.00;98.30;;;;;;5034174;28;20073;-73
2021/07/04 08:00:59;;;;;;;18.30;16.00;;;22.10;98.10;;;;;;5034770;28;20018;-73
2021/07/04 08:03:24;;;;;;;21.75;18.42;;;22.20;98.00;;;;;;5034610;28;20022;-73
2021/07/04 08:05:50;;;;;;;20.70;17.33;;;22.30;97.80;;;;;;5034448;28;20025;-73
2021/07/04 08:08:15;;;;;;;20.35;17.42;;;22.30;97.60;;;;;;5037615;28;20033;-73
2021/07/04 08:10:41;;;;;;;17.30;15.35;;;22.30;97.60;;;;;;5032809;28;20028;-74
2021/07/04 08:13:06;;;;;;;17.58;13.63;;;22.30;97.60;;;;;;5034139;28;20037;-73
2021/07/04 08:15:32;;;;;;;16.98;14.60;;;22.30;97.50;;;;;;5033837;28;20029;-73
2021/07/04 08:17:58;;;;;;;16.70;13.85;;;22.30;97.40;;;;;;5035088;28;20060;-73
2021/07/04 08:20:24;;;;;;;16.35;14.05;;;22.40;97.40;;;;;;5033748;28;20087;-73
2021/07/04 08:22:50;;;;;;;17.55;15.60;;;22.40;97.20;;;;;;5033716;28;20037;-74
2021/07/04 08:25:16;;;;;;;18.02;15.75;;;22.50;97.10;;;;;;5033909;28;20037;-73
2021/07/04 08:27:42;;;;;;;17.33;14.48;;;22.50;96.90;;;;;;5033860;28;20037;-73
2021/07/04 08:30:10;;;;;;;17.98;15.38;;;22.50;96.70;;;;;;5033876;28;20108;-73
2021/07/04 08:32:36;;;;;;;18.85;16.17;;;22.70;96.60;;;;;;5034119;28;20013;-73
2021/07/04 08:35:02;;;;;;;17.73;14.80;;;22.70;96.40;;;;;;5033574;28;20086;-73
2021/07/04 08:37:28;;;;;;;16.60;14.65;;;22.70;96.30;;;;;;5033325;28;20029;-73
2021/07/04 08:39:53;;;;;;;17.45;14.45;;;22.80;96.20;;;;;;5033526;28;20028;-74
2021/07/04 08:42:19;;;;;;;16.10;14.40;;;22.90;96.20;;;;;;5033534;28;20025;-73
2021/07/04 08:44:49;;;;;;;17.42;14.65;;;23.00;96.10;;;;;;5033642;28;20087;-73
2021/07/04 08:47:22;;;;;;;18.38;16.25;;;23.20;95.90;;;;;;5033950;28;20018;-73
2021/07/04 08:49:49;;;;;;;16.55;14.80;;;23.40;95.70;;;;;;5032971;28;20040;-73
2021/07/04 08:52:15;;;;;;;18.80;15.57;;;23.50;95.50;;;;;;5033923;28;20025;-74
2021/07/04 08:54:41;;;;;;;19.60;17.17;;;23.70;95.30;;;;;;5033817;28;20026;-73
2021/07/04 08:57:10;;;;;;;21.80;19.23;;;23.80;94.90;;;;;;5033745;28;20123;-73
2021/07/04 08:59:37;;;;;;;20.40;18.10;;;23.90;94.60;;;;;;5033702;28;20112;-74
2021/07/04 09:02:04;;;;;;;25.85;21.90;;;24.00;94.40;;;;;;5033538;28;20033;-73
2021/07/04 09:04:29;;;;;;;19.77;17.08;;;24.00;94.00;;;;;;5035834;28;20096;-73
2021/07/04 09:06:56;;;;;;;22.33;18.63;;;24.10;94.00;;;;;;5033017;28;20473;-74
2021/07/04 09:09:27;;;;;;;22.25;16.83;;;24.30;93.90;;;;;;5034834;28;20017;-75
2021/07/04 09:12:11;;;;;;;17.80;15.65;;;24.50;93.50;;;;;;5032950;28;20022;-74
2021/07/04 09:14:42;;;;;;;15.50;13.90;;;24.60;93.20;;;;;;5032935;28;20048;-74
2021/07/04 09:17:10;;;;;;;17.00;14.73;;;24.60;93.10;;;;;;5033300;28;20482;-74
2021/07/04 09:19:41;;;;;;;19.45;15.65;;;24.60;92.90;;;;;;5032824;28;20024;-73
2021/07/04 09:22:11;;;;;;;17.85;14.82;;;24.50;92.70;;;;;;5035069;28;20041;-73
2021/07/04 09:24:41;;;;;;;19.17;15.57;;;24.30;92.60;;;;;;5033403;28;20010;-73
2021/07/04 09:27:09;;;;;;;21.20;16.77;;;24.30;92.20;;;;;;5033105;28;20512;-73
2021/07/04 09:29:53;;;;;;;19.65;14.93;;;24.20;91.70;;;;;;5033177;28;20037;-73
2021/07/04 09:32:26;;;;;;;16.23;12.80;;;24.20;91.50;;;;;;5033503;28;20033;-73
2021/07/04 09:35:05;;;;;;;17.10;12.77;;;24.30;91.50;;;;;;5032748;28;20120;-74
2021/07/04 09:37:38;;;;;;;16.35;13.20;;;24.50;91.40;;;;;;5031909;28;20022;-73
2021/07/04 09:40:15;;;;;;;17.00;12.27;;;24.60;91.10;;;;;;5032162;28;20030;-74
2021/07/04 09:42:52;;;;;;;14.02;12.25;;;24.70;91.00;;;;;;5032578;28;20104;-73
2021/07/04 09:45:18;;;;;;;15.15;13.07;;;25.00;90.70;;;;;;5031372;28;20104;-73
2021/07/04 09:47:50;;;;;;;16.60;13.20;;;25.10;90.40;;;;;;5032411;28;20109;-73
2021/07/04 09:50:16;;;;;;;18.95;13.68;;;25.30;90.20;;;;;;5035049;28;20013;-73
2021/07/04 09:52:57;;;;;;;15.38;13.23;;;25.40;90.10;;;;;;5032430;28;20052;-73
2021/07/04 09:55:23;;;;;;;12.27;10.93;;;25.60;90.00;;;;;;5032267;28;20055;-73
2021/07/04 09:58:09;;;;;;;13.60;12.20;;;25.70;90.00;;;;;;5035017;28;20064;-73
2021/07/04 10:00:40;;;;;;;15.60;13.55;;;25.90;89.40;;;;;;5032738;28;20052;-73
2021/07/04 10:03:17;;;;;;;13.30;11.90;;;26.00;89.20;;;;;;5032684;28;20102;-73
2021/07/04 10:05:44;;;;;;;17.08;14.15;;;26.00;88.80;;;;;;5032389;28;20057;-73
2021/07/04 10:08:19;;;;;;;14.05;12.55;;;26.00;88.70;;;;;;5035681;28;20021;-73
2021/07/04 10:10:45;;;;;;;15.32;13.00;;;26.00;88.60;;;;;;5032039;28;20026;-73
2021/07/04 10:13:11;;;;;;;14.48;12.75;;;26.00;88.70;;;;;;5032257;28;20389;-73
2021/07/04 10:15:39;;;;;;;14.77;13.15;;;26.10;88.40;;;;;;5032142;28;20051;-73
2021/07/04 10:18:06;;;;;;;14.25;12.15;;;26.10;87.80;;;;;;5033492;28;20413;-73
2021/07/04 10:20:32;;;;;;;13.93;12.45;;;26.20;87.70;;;;;;5031901;28;20025;-73
2021/07/04 10:22:58;;;;;;;13.45;12.00;;;26.30;87.30;;;;;;5031871;28;20519;-73
2021/07/04 10:25:23;;;;;;;14.18;12.23;;;26.50;87.10;;;;;;5032196;28;20425;-73
2021/07/04 10:27:50;;;;;;;13.65;12.05;;;26.50;86.90;;;;;;5032444;28;20017;-73
2021/07/04 10:30:16;;;;;;;14.38;12.93;;;26.50;86.40;;;;;;5032473;28;20071;-73
2021/07/04 10:33:04;;;;;;;17.92;15.27;;;26.50;86.00;;;;;;5032180;28;20549;-73
2021/07/04 10:35:30;;;;;;;15.35;13.55;;;26.50;85.00;;;;;;5032628;28;20018;-73
2021/07/04 10:38:12;;;;;;;14.52;12.90;;;26.40;85.00;;;;;;5032199;28;20140;-73
2021/07/04 10:40:38;;;;;;;14.25;12.73;;;26.40;84.30;;;;;;5032488;28;20397;-73
2021/07/04 10:43:04;;;;;;;12.35;11.15;;;26.20;84.40;;;;;;5032396;28;20520;-73
2021/07/04 10:45:37;;;;;;;15.32;12.13;;;26.20;84.50;;;;;;5035353;28;20384;-73
2021/07/04 10:48:27;;;;;;;12.52;10.80;;;26.20;84.10;;;;;;5045137;28;20038;-72
2021/07/04 10:51:10;;;;;;;12.15;10.88;;;26.10;84.10;;;;;;5031980;28;20034;-73
2021/07/04 10:53:51;;;;;;;11.43;10.18;;;26.00;84.70;;;;;;5045991;28;20037;-73
2021/07/04 10:56:34;;;;;;;11.02;9.93;;;26.00;84.00;;;;;;5051618;28;20017;-73
2021/07/04 10:59:15;;;;;;;12.55;10.90;;;26.00;84.00;;;;;;5032458;28;20029;-73
2021/07/04 11:01:53;;;;;;;12.88;10.82;;;26.10;83.90;;;;;;5049214;28;20021;-72
2021/07/04 11:04:28;;;;;;;12.20;10.90;;;26.20;83.80;;;;;;5045553;28;20053;-72
2021/07/04 11:07:00;;;;;;;13.13;11.77;;;26.30;83.30;;;;;;5031842;28;20022;-72
2021/07/04 11:09:51;;;;;;;13.73;11.25;;;26.40;82.70;;;;;;5048492;28;20049;-73
2021/07/04 11:12:31;;;;;;;14.20;12.05;;;26.40;82.10;;;;;;5032168;28;20025;-72
2021/07/04 11:15:12;;;;;;;12.32;11.07;;;26.40;81.90;;;;;;5035512;28;20053;-72
2021/07/04 11:17:56;;;;;;;11.73;10.27;;;26.40;81.80;;;;;;5047539;28;20033;-72
2021/07/04 11:20:38;;;;;;;13.98;11.68;;;26.50;81.60;;;;;;5035618;28;20026;-72
2021/07/04 11:23:09;;;;;;;15.35;13.57;;;26.60;81.30;;;;;;5035262;28;20520;-72
2021/07/04 11:25:37;;;;;;;15.15;12.80;;;26.60;81.20;;;;;;5035422;28;20495;-72
2021/07/04 11:28:15;;;;;;;13.13;11.80;;;26.70;80.40;;;;;;5035457;28;20033;-72
2021/07/04 11:30:41;;;;;;;13.10;11.65;;;26.90;79.80;;;;;;5045302;28;20037;-72
2021/07/04 11:33:19;;;;;;;11.30;10.20;;;27.10;78.90;;;;;;5052136;28;20025;-72
2021/07/04 11:35:46;;;;;;;10.82;9.73;;;27.40;77.70;;;;;;5035419;28;20122;-72
2021/07/04 11:38:15;;;;;;;11.95;10.32;;;27.40;77.50;;;;;;5034980;28;20499;-72
2021/07/04 11:40:42;;;;;;;10.60;9.25;;;27.50;76.80;;;;;;5035297;28;20108;-72
2021/07/04 11:43:15;;;;;;;10.32;9.18;;;27.60;76.40;;;;;;5033851;28;20026;-72
2021/07/04 11:45:58;;;;;;;10.80;9.07;;;27.60;75.80;;;;;;5033963;28;20041;-72
2021/07/04 11:48:56;;;;;;;11.77;10.55;;;27.70;75.60;;;;;;5035145;28;20057;-72
2021/07/04 11:51:26;;;;;;;9.88;8.88;;;27.80;74.30;;;;;;5034904;28;20418;-72
2021/07/04 11:53:54;;;;;;;10.45;9.00;;;27.80;73.50;;;;;;5037257;28;20033;-72
2021/07/04 11:56:21;;;;;;;10.30;8.20;;;27.90;73.20;;;;;;5054650;28;20104;-72
2021/07/04 11:58:47;;;;;;;8.73;7.82;;;27.90;73.40;;;;;;5053676;28;20556;-72
2021/07/04 12:01:23;;;;;;;9.85;8.10;;;28.00;73.10;;;;;;5051272;28;20156;-72
2021/07/04 12:03:54;;;;;;;7.68;6.88;;;28.00;72.70;;;;;;5054089;28;20048;-72
2021/07/04 12:06:21;;;;;;;9.23;8.18;;;28.00;72.50;;;;;;5043952;28;20082;-72
2021/07/04 12:09:03;;;;;;;8.75;7.70;;;27.90;71.80;;;;;;5046783;28;20036;-72
2021/07/04 12:11:44;;;;;;;7.38;6.40;;;28.00;71.40;;;;;;5043585;28;20025;-72
2021/07/04 12:14:30;;;;;;;6.15;5.53;;;28.00;70.80;;;;;;5050303;28;20572;-72
2021/07/04 12:17:14;;;;;;;7.82;6.82;;;28.10;70.70;;;;;;5045937;28;20060;-72
2021/07/04 12:19:41;;;;;;;7.53;6.70;;;28.20;70.00;;;;;;5034165;28;20013;-72
2021/07/04 12:22:13;;;;;;;5.45;4.93;;;28.30;69.70;;;;;;5033536;28;20033;-72
2021/07/04 12:24:42;;;;;;;6.07;5.45;;;28.40;69.30;;;;;;5033399;28;20034;-72
2021/07/04 12:27:09;;;;;;;5.78;5.18;;;28.50;69.40;;;;;;5034453;28;20025;-72
2021/07/04 12:29:57;;;;;;;6.68;6.00;;;28.60;69.40;;;;;;5034173;28;20053;-72
2021/07/04 12:32:22;;;;;;;7.53;6.72;;;28.70;69.20;;;;;;5034033;28;20033;-72
2021/07/04 12:34:48;;;;;;;6.75;5.85;;;28.80;69.20;;;;;;5039060;28;21525;-72
2021/07/04 12:37:14;;;;;;;7.30;6.53;;;28.90;69.00;;;;;;5050006;28;20017;-72
2021/07/04 12:39:45;;;;;;;6.50;5.80;;;29.00;68.70;;;;;;5050395;28;20491;-72